RELACIONES PÚBLICAS

27/12/2017PERSPECTIVAS CLIMÁTICAS PARA ENERO – FEBRERO - MARZO 2017  Se adjunta el Informe de Perspectivas Climáticas para el trimestre Enero, Febrero y Marzo del 2017.http://meteorologia.gub.uy/ServCli/tendenciasClimaticas

Productos aeronáuticos

  • SIGMET
  • METAR / SPECI
  • TAF
  • AIREP
  • Aviso de aeródromo
  • Pronárea
  • Carta superficie
Fecha : 26/02/2017
FTUY 03 SUMU 25 11 40
SUMU TAF 261140Z 2612/2712 35008KT 9999 FEW040TCU SCT070 BKN200 TX32/2618Z TN23/2709Z BECMG 2616/2618 16012KT BECMG 2622/2700 08008KT BECMG 2703/2705 36015KT=
SULS TAF 261140Z 2612/2712 35008KT 9999 FEW040TCU SCT070 BKN200 TX32/2618Z TN23/2709Z BECMG 2616/2618 16012KT BECMG 2622/2700 08008KT BECMG 2703/2705 36015KT=
SUAA TAF 261140Z 2612/2712 35008KT 9999 FEW040TCU SCT070 BKN200 TX32/2618Z TN23/2709Z BECMG 2616/2618 16012KT BECMG 2622/2700 08008KT BECMG 2703/2705 36015KT=
SUCA TAF 261140Z 2612/2712 35008KT 9999 FEW040TCU SCT070 BKN200 TX32/2618Z TN23/2709Z BECMG 2616/2618 16012KT BECMG 2622/2700 08008KT BECMG 2703/2705 36015KT=
SUDU TAF 261140Z 2612/2712 04005KT CAVOK TX34/2618Z TN19/2709Z BECMG 2615/2617 09010KT 9999 FEW040TCU SCT080=
SUSO TAF 261140Z 2612/2712 12008KT CAVOK TX34/2618Z TN19/2709Z BECMG 2705/2707 02005KT=
SURV TAF 261140Z 2612/2712 08004KT CAVOK TX34/2618Z TN19/2709Z BECMG 2615/2622 09010KT 9999 FEW040TCU=

Predictor :


Mensajes TAF vigentes - Internacionales


Argentina
TAF SAEZ 261100Z 2612/2712 VRB03KT CAVOK TX34/2618Z TN24/2709Z BECMG 2615/2617 02010KT SCT030 FEW045TCU BKN200 BECMG 2623/2702 CAVOK BECMG 2707/2709 2000 BR SCT005 TEMPO 2710/2711 1000 CBFG BR BKN005
TAF SABE 261100Z 2612/2712 36005KT CAVOK TX33/2618Z TN25/2709Z BECMG 2615/2617 SCT030 FEW045TCU BECMG 2620/2622 09010KT BECMG 2705/2707 36010KT
TAF SACO 261100Z 2612/2712 36005KT 7000 FEW040CB TX33/2618Z TN20/2710Z BECMG 2614/2617 36010KT 9999 SCT030 FEW040CB PROB40 TEMPO 2619/2623 5000 SHRA TEMPO 2709/2712 VRB03KT 2000 BR SCT010
TAF SAME 261100Z 2612/2712 14005KT 9999 SCT040 TX32/2610Z TN21/2710Z BECMG 2621/2623 14010KT 8000 TSRA SCT040TCU FEW050CB
TAF SAAR 261100Z 2612/2712 VRB03KT CAVOK TX35/2618Z TN24/2708Z BECMG 2614/2616 03010KT SCT030 FEW040TCU BECMG 2603/2605 VRB03KT 5000 BR PROB40 0600 FG BECMG 2710/2712 05010KT 8000 NSC
Bolivia
TAF SLLP 261100Z 2612/2712 04008KT 9999 SCT015 TX16/2620Z TN04/2710Z TEMPO 2618/2622 14010KT 8000 VCTSSH SCT015 FEW017CB SCT070 BECMG 2623/2701 07006KT FEW015 FEW017CB TEMPO 2706/2710 4000E VCFG FEW002 SCT012
Brasil
TAF SBSP 260930Z 2612/2712 34007KT 9999 FEW025 TX26/2617Z TN20/2709Z BECMG 2614/2616 25005KT 8000 RA SCT013 BKN020 PROB30 2617/2619 TSRA SCT020 FEW035CB BECMG 2620/2622 18010KT 9999 NSW BKN015 PROB30 2703/2706 SCT020 BECMG 2709/2711 02005KT CAVOK RMK PHG
TAF SBGR 260930Z 2612/2718 03005KT CAVOK TN19/2708Z TX26/2717Z BECMG 2612/2614 33008KT FEW020 BECMG 2614/2616 25005KT 8000 RA SCT015 BKN025 PROB40 2617/2620 TSRA SCT025 FEW035CB BECMG 2620/2622 16005KT 9999 NSW BKN015 PROB30 2703/2706 05002KT SCT020 BECMG 2706/2708 00000KT 6000 BKN008 BECMG 2712/2714 33007KT SCT025 BECMG 2714/2716 25005KT 8000 SCT022 PROB40 2716/2718 TSRA SCT025 FEW035CB RMK PHG
TAF SBFI 260900Z 2612/2712 02004KT CAVOK TX33/2618Z TN21/2708Z BECMG 2612/2614 11005KT 9999 SCT030 PROB30 TEMPO 2616/2618 VCSH SCT030 FEW040TCU RMK PDJ
TAF SBFL 260900Z 2612/2712 16007KT 9999 BKN030 TX28/2618Z TN21/2708Z BECMG 2614/2616 SCT030 FEW040TCU TEMPO 2616/2621 8000 SHRA BKN020 FEW030TC U BECMG 2700/2702 BKN020 RMK PDJ
TAF SBPA 260900Z 2612/2712 11008KT 9999 SCT020 TX30/2618Z TN21/2708Z BECMG 2612/2614 BKN030 BECMG 2614/2616 SCT030 BECMG 2620/2622 CAVOK RMK PD J
TAF SBBR 260800Z 2612/2712 10005KT 7000 BKN030 TX24/2620Z TN20/2709Z PROB30 2612/2614 BKN005 PROB30 2616/2618 TS SCT030 FEW035CB BECMG 2618/2620 04005KT 7000 TS SCT035 BECMG 2700/2702 27005KT 7000 SCT030 BECMG 2706/2708 13005KT 7000 FEW020 RMK PDE
TAF SBRJ 260300Z 2606/2618 06005KT 9999 FEW020 TN23/2609Z TX28/2617Z BECMG 2615/2617 14010KT SCT030 RMK PGU
Colombia
TAF SKBO 261100Z 2612/2712 04005KT 9999 SCT020 BKN080 TEMPO 2612/2614 8000 VCSH DZ BECMG 2618/2620 28012KT SCT017TCU TEMPO 2620/2622 7000 TSRA SCT015CB BECMG 2700/2702 04005KT SCT020 SCT080 TEMPO 2701/2704 8000 DZRA BKN020 TX19/2618Z TN09/2711Z
Chile
TAF SCCI 261046Z 2612/2712 28015G26KT 9999 SCT040 TX14/2619Z TN09/2612Z PROB30 TEMPO 2612/2617 9000 -SHRA SCT025 BKN035 BECMG 2622/2700 29015KT BECMG 2701/2704 SCT040 BECMG 2708/2710 30020KT
TAF COR SCEL 261020Z 2612/2712 VRB02KT 9999 BKN140 TX30/2619Z TN16/2710Z BECMG 2615/2617 17008KT FEW040 BKN160 BECMG 2619/2620 21015KT SCT050 BKN150 TEMPO 2620/2624 7000 -SHRA BECMG 2702/2704 16005KT BKN180 BECMG 2708/2710 VRB02KT CAVOK
Ecuador
SEQM 260940Z 2612/2712 VRB03KT 9999 SCT010 SCT030 OVC100 TEMPO 2612/2615 RA FM261800 36012KT 9999 BKN030 BKN100 TEMPO 2620/2623 SHRA FM270000 15003KT 9999 SCT023 BKN090 FM270600 00000KT 8000 SCT010 BKN090 TEMPO 2706/2709 RA TX20/2619Z TN11/2711Z
EEUU
KJFK 261136Z 2612/2718 30018G25KT P6SM SCT040 TEMPO 2612/2616 BKN040 FM261600 29016G24KT P6SM BKN045 FM262300 28014G22KT P6SM FEW040 FM270300 27009KT P6SM SKC FM270800 25009KT P6SM SKC FM271100 23010KT P6SM SKC
KLGA 261136Z 2612/2712 30017G25KT P6SM SCT045 TEMPO 2612/2615 BKN045 FM261500 29015G23KT P6SM BKN040 FM262300 29013G21KT P6SM FEW035 FM270200 27009KT P6SM SKC FM270700 24007KT P6SM SKC
KIAD 261135Z 2612/2718 29013G21KT P6SM BKN045 FM261900 28011KT P6SM SCT050 FM262200 28008KT P6SM FEW050 FM270000 31004KT P6SM SKC FM271000 VRB03KT P6SM BKN100 FM271600 20007KT P6SM OVC080
KDCA 261135Z 2612/2712 29014G23KT P6SM BKN045 FM261900 28012KT P6SM SCT050 FM262200 28007KT P6SM SKC FM271000 VRB03KT P6SM BKN100
KMIA 261134Z 2612/2712 34006KT P6SM SKC FM261400 04008KT P6SM FEW030 SCT060 FM261800 08012KT P6SM SCT030 BKN050 FM270000 10008KT P6SM SCT250
España
TAF LEMD 261100Z 2612/2718 VRB04KT CAVOK TX16/2615Z TN04/2706Z PROB40 TEMPO 2612/2614 BKN012 BECMG 2615/2617 23010KT PROB30 TEMPO 2615/2618 23008G18KT PROB30 TEMPO 2703/2708 0500 FG BKN004
TAF LEBL 261100Z 2612/2712 23012KT 9999 FEW025 TX16/2613Z TN10/2706Z PROB30 TEMPO 2622/2708 29006KT TEMPO 2621/2712 BKN012
Francia
TAF LFPO 261100Z 2612/2718 22012G25KT 9999 BKN020 TEMPO 2612/2708 BKN012 PROB30 TEMPO 2612/2624 BKN008 TEMPO 2708/2714 21017G35KT 2500 RA BKN009 SCT020TCU TEMPO 2714/2718 21017G35KT SHRA BKN025TCU PROB40 TEMPO 2712/2718 21020G40KT 2500 TSRA BKN012 SCT025CB PROB30 TEMPO 2715/2718 1500 TSRAGS BKN009 BKN020CB
Inglaterra
TAF EGLL 261051Z 2612/2718 22014KT 9999 SCT020 TEMPO 2612/2621 21018G30KT PROB30 TEMPO 2618/2624 7000 SHRA BKN014 TEMPO 2707/2718 7000 SHRA PROB40 TEMPO 2708/2713 21015G25KT 4000 +SHGS BKN014CB PROB30 TEMPO 2713/2718 4000 +SHGS BKN014CB
Panamá
TAF MPTO 261100Z 2612/2718 00000KT 9999 FEW018 BECMG 2617/2621 17006KT TEMPO 2622/2702 03006KT
Paraguay
TAF SGAS 261002Z 2612/2712 11004KT CAVOK TX36/2619Z TN24/2709Z BECMG 2612/2615 07008KT 9999 SCT030 BECMG 2615/2618 VRB06KT 9999 SCT027 FEW040TCU PROB30 TEMPO 2618/2620 8000 SHRA BKN027 FEW040TCU BECMG 2622/2701 VRB07KT 9999 FEW033 BECMG 2701/2704 00000KT CAVOK BECMG 2709/2712 04007KT CAVOK
Venezuela
TAF SVMI 251700Z 2518/2618 03005KT 9999 BKN016 TX30/18Z TN24/09Z TEMPO 2518/2522 08008KT9999 SCT016 FM25230007005KT 9999 FEW016

* Datos extraidos del Text DataServer de la NOAA (NOAA TEXT DATA SERVER)

Instituto Uruguayo de Meteorología

Dr. Javier Barrios Amorín 1488 - CP 11200
1895 int 108

Montevideo - Uruguay